sensor_id;sensor_type;location;lat;lon;timestamp;temperature;humidity
80212;DHT22;70434;37.956;23.722;2023-06-14T00:01:48;24.50;48.10
80212;DHT22;70434;37.956;23.722;2023-06-14T00:04:14;24.40;48.00
80212;DHT22;70434;37.956;23.722;2023-06-14T00:06:44;24.40;48.30
80212;DHT22;70434;37.956;23.722;2023-06-14T00:09:11;24.40;48.20
80212;DHT22;70434;37.956;23.722;2023-06-14T00:11:39;24.40;48.10
80212;DHT22;70434;37.956;23.722;2023-06-14T00:14:05;24.40;48.20
80212;DHT22;70434;37.956;23.722;2023-06-14T00:16:31;24.40;48.10
80212;DHT22;70434;37.956;23.722;2023-06-14T00:18:59;24.50;48.30
80212;DHT22;70434;37.956;23.722;2023-06-14T00:21:24;24.50;48.30
80212;DHT22;70434;37.956;23.722;2023-06-14T00:23:50;24.50;48.30
80212;DHT22;70434;37.956;23.722;2023-06-14T00:26:16;24.50;48.40
80212;DHT22;70434;37.956;23.722;2023-06-14T00:28:41;24.40;48.60
80212;DHT22;70434;37.956;23.722;2023-06-14T00:31:07;24.40;48.60
80212;DHT22;70434;37.956;23.722;2023-06-14T00:33:33;24.40;48.40
80212;DHT22;70434;37.956;23.722;2023-06-14T00:35:59;24.30;48.60
80212;DHT22;70434;37.956;23.722;2023-06-14T00:38:24;24.30;49.20
80212;DHT22;70434;37.956;23.722;2023-06-14T00:40:50;24.20;49.50
80212;DHT22;70434;37.956;23.722;2023-06-14T00:43:16;24.30;49.50
80212;DHT22;70434;37.956;23.722;2023-06-14T00:45:42;24.20;49.20
80212;DHT22;70434;37.956;23.722;2023-06-14T00:48:08;24.10;48.80
80212;DHT22;70434;37.956;23.722;2023-06-14T00:50:35;24.10;48.30
80212;DHT22;70434;37.956;23.722;2023-06-14T00:53:02;24.10;48.10
80212;DHT22;70434;37.956;23.722;2023-06-14T00:55:28;24.10;47.60
80212;DHT22;70434;37.956;23.722;2023-06-14T00:57:55;24.10;47.40
80212;DHT22;70434;37.956;23.722;2023-06-14T01:00:21;24.10;47.30
80212;DHT22;70434;37.956;23.722;2023-06-14T01:02:47;24.10;47.40
80212;DHT22;70434;37.956;23.722;2023-06-14T01:05:15;24.10;47.50
80212;DHT22;70434;37.956;23.722;2023-06-14T01:10:35;24.20;47.40
80212;DHT22;70434;37.956;23.722;2023-06-14T01:15:31;24.20;47.20
80212;DHT22;70434;37.956;23.722;2023-06-14T01:17:58;24.20;47.30
80212;DHT22;70434;37.956;23.722;2023-06-14T01:20:32;24.20;47.50
80212;DHT22;70434;37.956;23.722;2023-06-14T01:22:59;24.10;47.40
80212;DHT22;70434;37.956;23.722;2023-06-14T01:25:25;24.10;47.60
80212;DHT22;70434;37.956;23.722;2023-06-14T01:30:23;24.10;47.80
80212;DHT22;70434;37.956;23.722;2023-06-14T01:32:52;24.00;47.80
80212;DHT22;70434;37.956;23.722;2023-06-14T01:35:19;24.00;48.00
80212;DHT22;70434;37.956;23.722;2023-06-14T01:37:46;24.10;48.00
80212;DHT22;70434;37.956;23.722;2023-06-14T01:40:14;24.00;47.90
80212;DHT22;70434;37.956;23.722;2023-06-14T01:42:41;24.00;47.90
80212;DHT22;70434;37.956;23.722;2023-06-14T01:45:09;24.00;47.80
80212;DHT22;70434;37.956;23.722;2023-06-14T01:47:36;24.00;47.90
80212;DHT22;70434;37.956;23.722;2023-06-14T01:50:03;24.00;47.90
80212;DHT22;70434;37.956;23.722;2023-06-14T01:52:29;24.00;47.80
80212;DHT22;70434;37.956;23.722;2023-06-14T01:54:55;24.00;47.70
80212;DHT22;70434;37.956;23.722;2023-06-14T01:57:21;23.90;47.80
80212;DHT22;70434;37.956;23.722;2023-06-14T01:59:47;23.90;48.10
80212;DHT22;70434;37.956;23.722;2023-06-14T02:02:14;23.80;48.20
80212;DHT22;70434;37.956;23.722;2023-06-14T02:04:40;23.90;48.20
80212;DHT22;70434;37.956;23.722;2023-06-14T02:07:06;23.90;48.00
80212;DHT22;70434;37.956;23.722;2023-06-14T02:09:33;23.80;47.80
80212;DHT22;70434;37.956;23.722;2023-06-14T02:11:59;23.80;48.30
80212;DHT22;70434;37.956;23.722;2023-06-14T02:14:25;23.90;48.20
80212;DHT22;70434;37.956;23.722;2023-06-14T02:16:51;23.90;47.70
80212;DHT22;70434;37.956;23.722;2023-06-14T02:19:19;23.90;47.20
80212;DHT22;70434;37.956;23.722;2023-06-14T02:21:45;23.90;47.00
80212;DHT22;70434;37.956;23.722;2023-06-14T02:24:11;23.90;47.20
80212;DHT22;70434;37.956;23.722;2023-06-14T02:26:37;23.90;47.30
80212;DHT22;70434;37.956;23.722;2023-06-14T02:29:08;23.80;47.20
80212;DHT22;70434;37.956;23.722;2023-06-14T02:31:36;23.80;47.60
80212;DHT22;70434;37.956;23.722;2023-06-14T02:34:02;23.80;47.40
80212;DHT22;70434;37.956;23.722;2023-06-14T02:36:28;23.80;47.30
80212;DHT22;70434;37.956;23.722;2023-06-14T02:38:57;23.70;47.50
80212;DHT22;70434;37.956;23.722;2023-06-14T02:41:25;23.60;47.70
80212;DHT22;70434;37.956;23.722;2023-06-14T02:43:52;23.60;47.80
80212;DHT22;70434;37.956;23.722;2023-06-14T02:46:18;23.60;47.60
80212;DHT22;70434;37.956;23.722;2023-06-14T02:48:44;23.70;47.80
80212;DHT22;70434;37.956;23.722;2023-06-14T02:51:10;23.70;47.90
80212;DHT22;70434;37.956;23.722;2023-06-14T02:53:36;23.60;48.00
80212;DHT22;70434;37.956;23.722;2023-06-14T02:56:02;23.60;48.10
80212;DHT22;70434;37.956;23.722;2023-06-14T02:58:29;23.60;48.00
80212;DHT22;70434;37.956;23.722;2023-06-14T03:00:55;23.60;47.80
80212;DHT22;70434;37.956;23.722;2023-06-14T03:03:21;23.60;47.80
80212;DHT22;70434;37.956;23.722;2023-06-14T03:05:50;23.60;47.80
80212;DHT22;70434;37.956;23.722;2023-06-14T03:08:17;23.50;48.30
80212;DHT22;70434;37.956;23.722;2023-06-14T03:10:48;23.50;48.70
80212;DHT22;70434;37.956;23.722;2023-06-14T03:13:14;23.50;48.50
80212;DHT22;70434;37.956;23.722;2023-06-14T03:15:42;23.60;48.40
80212;DHT22;70434;37.956;23.722;2023-06-14T03:18:08;23.60;48.20
80212;DHT22;70434;37.956;23.722;2023-06-14T03:20:38;23.50;48.20
80212;DHT22;70434;37.956;23.722;2023-06-14T03:23:04;23.50;48.40
80212;DHT22;70434;37.956;23.722;2023-06-14T03:25:31;23.50;48.70
80212;DHT22;70434;37.956;23.722;2023-06-14T03:27:58;23.50;48.70
80212;DHT22;70434;37.956;23.722;2023-06-14T03:30:24;23.50;48.50
80212;DHT22;70434;37.956;23.722;2023-06-14T03:32:50;23.50;48.40
80212;DHT22;70434;37.956;23.722;2023-06-14T03:35:21;23.50;48.60
80212;DHT22;70434;37.956;23.722;2023-06-14T03:37:47;23.50;48.30
80212;DHT22;70434;37.956;23.722;2023-06-14T03:40:15;23.50;48.30
80212;DHT22;70434;37.956;23.722;2023-06-14T03:42:48;23.50;48.80
80212;DHT22;70434;37.956;23.722;2023-06-14T03:45:18;23.50;49.00
80212;DHT22;70434;37.956;23.722;2023-06-14T03:47:44;23.50;48.80
80212;DHT22;70434;37.956;23.722;2023-06-14T03:50:10;23.50;48.60
80212;DHT22;70434;37.956;23.722;2023-06-14T03:52:36;23.50;48.40
80212;DHT22;70434;37.956;23.722;2023-06-14T03:55:02;23.50;48.20
80212;DHT22;70434;37.956;23.722;2023-06-14T03:57:29;23.60;47.70
80212;DHT22;70434;37.956;23.722;2023-06-14T03:59:55;23.60;47.40
80212;DHT22;70434;37.956;23.722;2023-06-14T04:02:21;23.60;47.50
80212;DHT22;70434;37.956;23.722;2023-06-14T04:04:48;23.60;47.10
80212;DHT22;70434;37.956;23.722;2023-06-14T04:07:17;23.60;47.20
80212;DHT22;70434;37.956;23.722;2023-06-14T04:09:45;23.60;47.60
80212;DHT22;70434;37.956;23.722;2023-06-14T04:12:11;23.50;47.50
80212;DHT22;70434;37.956;23.722;2023-06-14T04:14:39;23.60;48.00
80212;DHT22;70434;37.956;23.722;2023-06-14T04:17:05;23.60;47.90
80212;DHT22;70434;37.956;23.722;2023-06-14T04:19:30;23.60;47.90
80212;DHT22;70434;37.956;23.722;2023-06-14T04:21:56;23.60;48.00
80212;DHT22;70434;37.956;23.722;2023-06-14T04:24:22;23.60;48.10
80212;DHT22;70434;37.956;23.722;2023-06-14T04:26:49;23.60;48.30
80212;DHT22;70434;37.956;23.722;2023-06-14T04:29:15;23.60;48.40
80212;DHT22;70434;37.956;23.722;2023-06-14T04:31:45;23.70;48.50
80212;DHT22;70434;37.956;23.722;2023-06-14T04:34:11;23.80;48.60
80212;DHT22;70434;37.956;23.722;2023-06-14T04:36:42;23.80;48.50
80212;DHT22;70434;37.956;23.722;2023-06-14T04:39:22;23.80;48.60
80212;DHT22;70434;37.956;23.722;2023-06-14T04:41:48;23.80;48.80
80212;DHT22;70434;37.956;23.722;2023-06-14T04:44:18;23.80;48.80
80212;DHT22;70434;37.956;23.722;2023-06-14T04:46:45;24.00;48.50
80212;DHT22;70434;37.956;23.722;2023-06-14T04:49:13;24.00;48.10
80212;DHT22;70434;37.956;23.722;2023-06-14T04:51:44;24.10;47.50
80212;DHT22;70434;37.956;23.722;2023-06-14T04:54:10;24.20;47.70
80212;DHT22;70434;37.956;23.722;2023-06-14T04:56:39;24.20;47.80
80212;DHT22;70434;37.956;23.722;2023-06-14T04:59:05;24.20;47.80
80212;DHT22;70434;37.956;23.722;2023-06-14T05:01:31;24.30;47.70
80212;DHT22;70434;37.956;23.722;2023-06-14T05:03:58;24.30;47.80
80212;DHT22;70434;37.956;23.722;2023-06-14T05:06:23;24.30;47.90
80212;DHT22;70434;37.956;23.722;2023-06-14T05:08:49;24.40;47.10
80212;DHT22;70434;37.956;23.722;2023-06-14T05:11:15;24.40;46.90
80212;DHT22;70434;37.956;23.722;2023-06-14T05:13:42;24.50;46.90
80212;DHT22;70434;37.956;23.722;2023-06-14T05:16:10;24.50;46.50
80212;DHT22;70434;37.956;23.722;2023-06-14T05:18:37;24.50;46.50
80212;DHT22;70434;37.956;23.722;2023-06-14T05:21:04;24.50;46.60
80212;DHT22;70434;37.956;23.722;2023-06-14T05:23:32;24.70;46.40
80212;DHT22;70434;37.956;23.722;2023-06-14T05:25:58;24.60;46.80
80212;DHT22;70434;37.956;23.722;2023-06-14T05:28:24;24.50;47.10
80212;DHT22;70434;37.956;23.722;2023-06-14T05:30:51;24.50;47.10
80212;DHT22;70434;37.956;23.722;2023-06-14T05:33:17;24.60;46.80
80212;DHT22;70434;37.956;23.722;2023-06-14T05:35:42;24.60;46.60
80212;DHT22;70434;37.956;23.722;2023-06-14T05:38:08;24.60;47.10
80212;DHT22;70434;37.956;23.722;2023-06-14T05:40:34;24.70;46.40
80212;DHT22;70434;37.956;23.722;2023-06-14T05:43:00;24.70;46.60
80212;DHT22;70434;37.956;23.722;2023-06-14T05:45:25;24.80;46.30
80212;DHT22;70434;37.956;23.722;2023-06-14T05:47:52;24.90;45.90
80212;DHT22;70434;37.956;23.722;2023-06-14T05:50:20;24.90;45.20
80212;DHT22;70434;37.956;23.722;2023-06-14T05:52:46;24.90;44.50
80212;DHT22;70434;37.956;23.722;2023-06-14T05:55:11;25.00;44.40
80212;DHT22;70434;37.956;23.722;2023-06-14T05:57:37;25.00;44.60
80212;DHT22;70434;37.956;23.722;2023-06-14T06:00:03;25.10;44.40
80212;DHT22;70434;37.956;23.722;2023-06-14T06:02:42;25.10;44.30
80212;DHT22;70434;37.956;23.722;2023-06-14T06:05:12;25.20;44.40
80212;DHT22;70434;37.956;23.722;2023-06-14T06:07:38;25.20;44.30
80212;DHT22;70434;37.956;23.722;2023-06-14T06:10:06;25.20;44.10
80212;DHT22;70434;37.956;23.722;2023-06-14T06:12:32;25.20;44.30
80212;DHT22;70434;37.956;23.722;2023-06-14T06:14:58;25.30;44.00
80212;DHT22;70434;37.956;23.722;2023-06-14T06:17:25;25.40;43.60
80212;DHT22;70434;37.956;23.722;2023-06-14T06:19:51;25.60;43.70
80212;DHT22;70434;37.956;23.722;2023-06-14T06:22:17;25.50;43.60
80212;DHT22;70434;37.956;23.722;2023-06-14T06:24:43;25.50;43.50
80212;DHT22;70434;37.956;23.722;2023-06-14T06:27:09;25.60;43.70
80212;DHT22;70434;37.956;23.722;2023-06-14T06:29:35;25.70;43.20
80212;DHT22;70434;37.956;23.722;2023-06-14T06:32:01;25.70;43.00
80212;DHT22;70434;37.956;23.722;2023-06-14T06:34:27;25.70;43.20
80212;DHT22;70434;37.956;23.722;2023-06-14T06:36:53;25.80;43.00
80212;DHT22;70434;37.956;23.722;2023-06-14T06:39:19;25.80;42.80
80212;DHT22;70434;37.956;23.722;2023-06-14T06:41:44;25.90;42.90
80212;DHT22;70434;37.956;23.722;2023-06-14T06:44:10;26.00;43.10
80212;DHT22;70434;37.956;23.722;2023-06-14T06:46:36;26.00;43.00
80212;DHT22;70434;37.956;23.722;2023-06-14T06:49:06;26.10;42.80
80212;DHT22;70434;37.956;23.722;2023-06-14T06:51:32;26.20;42.30
80212;DHT22;70434;37.956;23.722;2023-06-14T06:53:58;26.10;42.60
80212;DHT22;70434;37.956;23.722;2023-06-14T06:56:26;26.10;42.90
80212;DHT22;70434;37.956;23.722;2023-06-14T06:59:08;26.10;42.70
80212;DHT22;70434;37.956;23.722;2023-06-14T07:01:34;26.10;42.10
80212;DHT22;70434;37.956;23.722;2023-06-14T07:04:01;26.20;42.00
80212;DHT22;70434;37.956;23.722;2023-06-14T07:06:28;26.20;42.00
80212;DHT22;70434;37.956;23.722;2023-06-14T07:08:55;26.30;42.00
80212;DHT22;70434;37.956;23.722;2023-06-14T07:11:27;26.30;41.70
80212;DHT22;70434;37.956;23.722;2023-06-14T07:13:52;26.40;41.80
80212;DHT22;70434;37.956;23.722;2023-06-14T07:16:18;26.40;41.40
80212;DHT22;70434;37.956;23.722;2023-06-14T07:18:44;26.40;41.60
80212;DHT22;70434;37.956;23.722;2023-06-14T07:21:10;26.50;41.50
80212;DHT22;70434;37.956;23.722;2023-06-14T07:23:35;26.60;41.50
80212;DHT22;70434;37.956;23.722;2023-06-14T07:26:01;26.60;41.60
80212;DHT22;70434;37.956;23.722;2023-06-14T07:28:27;26.70;41.40
80212;DHT22;70434;37.956;23.722;2023-06-14T07:30:52;26.60;41.70
80212;DHT22;70434;37.956;23.722;2023-06-14T07:33:18;26.70;41.60
80212;DHT22;70434;37.956;23.722;2023-06-14T07:35:44;26.80;41.60
80212;DHT22;70434;37.956;23.722;2023-06-14T07:38:11;26.90;41.30
80212;DHT22;70434;37.956;23.722;2023-06-14T07:40:36;26.90;40.90
80212;DHT22;70434;37.956;23.722;2023-06-14T07:43:02;27.00;40.70
80212;DHT22;70434;37.956;23.722;2023-06-14T07:45:28;27.00;40.60
80212;DHT22;70434;37.956;23.722;2023-06-14T07:47:54;27.10;40.40
80212;DHT22;70434;37.956;23.722;2023-06-14T07:50:20;27.10;40.00
80212;DHT22;70434;37.956;23.722;2023-06-14T07:52:46;27.10;39.60
80212;DHT22;70434;37.956;23.722;2023-06-14T07:55:13;27.20;39.80
80212;DHT22;70434;37.956;23.722;2023-06-14T07:57:40;27.20;39.80
80212;DHT22;70434;37.956;23.722;2023-06-14T08:00:06;27.20;39.60
80212;DHT22;70434;37.956;23.722;2023-06-14T08:02:32;27.30;39.40
80212;DHT22;70434;37.956;23.722;2023-06-14T08:04:58;27.30;39.50
80212;DHT22;70434;37.956;23.722;2023-06-14T08:07:24;27.30;39.90
80212;DHT22;70434;37.956;23.722;2023-06-14T08:09:50;27.30;39.90
80212;DHT22;70434;37.956;23.722;2023-06-14T08:12:16;27.30;40.10
80212;DHT22;70434;37.956;23.722;2023-06-14T08:14:42;27.30;40.10
80212;DHT22;70434;37.956;23.722;2023-06-14T08:17:08;27.40;39.70
80212;DHT22;70434;37.956;23.722;2023-06-14T08:19:34;27.40;39.10
80212;DHT22;70434;37.956;23.722;2023-06-14T08:22:00;27.50;39.00
80212;DHT22;70434;37.956;23.722;2023-06-14T08:24:26;27.50;39.30
80212;DHT22;70434;37.956;23.722;2023-06-14T08:26:54;27.60;39.40
80212;DHT22;70434;37.956;23.722;2023-06-14T08:29:19;27.60;38.90
80212;DHT22;70434;37.956;23.722;2023-06-14T08:31:47;27.60;38.70
80212;DHT22;70434;37.956;23.722;2023-06-14T08:34:13;27.70;37.90
80212;DHT22;70434;37.956;23.722;2023-06-14T08:36:39;27.70;38.10
80212;DHT22;70434;37.956;23.722;2023-06-14T08:39:05;27.80;38.00
80212;DHT22;70434;37.956;23.722;2023-06-14T08:41:31;27.90;38.10
80212;DHT22;70434;37.956;23.722;2023-06-14T08:43:58;28.00;38.10
80212;DHT22;70434;37.956;23.722;2023-06-14T08:46:26;28.00;37.80
80212;DHT22;70434;37.956;23.722;2023-06-14T08:48:55;28.10;38.20
80212;DHT22;70434;37.956;23.722;2023-06-14T08:51:22;28.20;37.90
80212;DHT22;70434;37.956;23.722;2023-06-14T08:53:56;28.20;37.70
80212;DHT22;70434;37.956;23.722;2023-06-14T08:56:27;28.30;37.80
80212;DHT22;70434;37.956;23.722;2023-06-14T08:58:54;28.30;37.60
80212;DHT22;70434;37.956;23.722;2023-06-14T09:01:22;28.40;37.60
80212;DHT22;70434;37.956;23.722;2023-06-14T09:03:49;28.40;37.40
80212;DHT22;70434;37.956;23.722;2023-06-14T09:06:16;28.50;37.40
80212;DHT22;70434;37.956;23.722;2023-06-14T09:08:43;28.50;37.70
80212;DHT22;70434;37.956;23.722;2023-06-14T09:11:12;28.50;38.00
80212;DHT22;70434;37.956;23.722;2023-06-14T09:13:42;28.60;38.00
80212;DHT22;70434;37.956;23.722;2023-06-14T09:16:08;28.70;37.20
80212;DHT22;70434;37.956;23.722;2023-06-14T09:18:44;28.70;38.40
80212;DHT22;70434;37.956;23.722;2023-06-14T09:21:14;28.70;39.90
80212;DHT22;70434;37.956;23.722;2023-06-14T09:23:42;28.70;40.20
80212;DHT22;70434;37.956;23.722;2023-06-14T09:26:12;28.70;40.30
80212;DHT22;70434;37.956;23.722;2023-06-14T09:28:46;28.70;40.30
80212;DHT22;70434;37.956;23.722;2023-06-14T09:31:13;28.60;41.00
80212;DHT22;70434;37.956;23.722;2023-06-14T09:33:45;28.60;41.50
80212;DHT22;70434;37.956;23.722;2023-06-14T09:36:21;28.60;41.30
80212;DHT22;70434;37.956;23.722;2023-06-14T09:41:19;28.50;40.40
80212;DHT22;70434;37.956;23.722;2023-06-14T09:43:46;28.50;40.10
80212;DHT22;70434;37.956;23.722;2023-06-14T09:46:13;28.50;40.70
80212;DHT22;70434;37.956;23.722;2023-06-14T09:48:39;28.50;41.40
80212;DHT22;70434;37.956;23.722;2023-06-14T09:51:10;28.50;41.30
80212;DHT22;70434;37.956;23.722;2023-06-14T09:53:41;28.60;40.20
80212;DHT22;70434;37.956;23.722;2023-06-14T09:56:09;28.60;40.50
80212;DHT22;70434;37.956;23.722;2023-06-14T09:58:39;28.60;41.10
80212;DHT22;70434;37.956;23.722;2023-06-14T10:01:08;28.50;41.30
80212;DHT22;70434;37.956;23.722;2023-06-14T10:03:34;28.50;41.40
80212;DHT22;70434;37.956;23.722;2023-06-14T10:06:03;28.40;41.60
80212;DHT22;70434;37.956;23.722;2023-06-14T10:08:36;28.20;40.80
80212;DHT22;70434;37.956;23.722;2023-06-14T10:11:02;28.10;41.60
80212;DHT22;70434;37.956;23.722;2023-06-14T10:13:32;28.10;41.00
80212;DHT22;70434;37.956;23.722;2023-06-14T10:19:23;28.30;40.80
80212;DHT22;70434;37.956;23.722;2023-06-14T10:22:09;28.30;40.10
80212;DHT22;70434;37.956;23.722;2023-06-14T10:24:44;28.30;39.30
80212;DHT22;70434;37.956;23.722;2023-06-14T10:27:13;28.30;39.90
80212;DHT22;70434;37.956;23.722;2023-06-14T10:32:24;28.50;39.50
80212;DHT22;70434;37.956;23.722;2023-06-14T10:34:58;28.60;39.50
80212;DHT22;70434;37.956;23.722;2023-06-14T10:37:24;28.70;38.90
80212;DHT22;70434;37.956;23.722;2023-06-14T10:39:50;28.70;38.70
80212;DHT22;70434;37.956;23.722;2023-06-14T10:42:16;28.80;39.10
80212;DHT22;70434;37.956;23.722;2023-06-14T10:47:11;29.00;39.10
80212;DHT22;70434;37.956;23.722;2023-06-14T10:50:09;29.00;39.00
80212;DHT22;70434;37.956;23.722;2023-06-14T10:52:38;29.00;39.30
80212;DHT22;70434;37.956;23.722;2023-06-14T10:57:40;29.20;39.30
80212;DHT22;70434;37.956;23.722;2023-06-14T11:00:08;29.20;39.60
80212;DHT22;70434;37.956;23.722;2023-06-14T11:05:54;29.20;37.60
80212;DHT22;70434;37.956;23.722;2023-06-14T11:11:23;29.30;37.40
80212;DHT22;70434;37.956;23.722;2023-06-14T11:13:51;29.20;37.40
80212;DHT22;70434;37.956;23.722;2023-06-14T11:16:17;29.30;37.20
80212;DHT22;70434;37.956;23.722;2023-06-14T11:18:46;29.40;36.80
80212;DHT22;70434;37.956;23.722;2023-06-14T11:21:16;29.60;36.30
80212;DHT22;70434;37.956;23.722;2023-06-14T11:23:42;29.60;36.50
80212;DHT22;70434;37.956;23.722;2023-06-14T11:26:08;29.70;35.90
80212;DHT22;70434;37.956;23.722;2023-06-14T11:28:40;29.70;36.00
80212;DHT22;70434;37.956;23.722;2023-06-14T11:31:07;29.80;36.40
80212;DHT22;70434;37.956;23.722;2023-06-14T11:33:33;30.00;36.30
80212;DHT22;70434;37.956;23.722;2023-06-14T11:36:02;29.90;36.40
80212;DHT22;70434;37.956;23.722;2023-06-14T11:38:28;29.80;36.60
80212;DHT22;70434;37.956;23.722;2023-06-14T11:40:58;29.80;36.60
80212;DHT22;70434;37.956;23.722;2023-06-14T11:43:25;29.90;36.90
80212;DHT22;70434;37.956;23.722;2023-06-14T11:45:52;30.00;37.20
80212;DHT22;70434;37.956;23.722;2023-06-14T11:48:18;30.10;36.80
80212;DHT22;70434;37.956;23.722;2023-06-14T11:50:49;30.20;36.50
80212;DHT22;70434;37.956;23.722;2023-06-14T11:53:15;30.20;36.20
80212;DHT22;70434;37.956;23.722;2023-06-14T11:55:42;30.30;36.00
80212;DHT22;70434;37.956;23.722;2023-06-14T11:58:10;30.40;35.60
80212;DHT22;70434;37.956;23.722;2023-06-14T12:00:36;30.20;35.90
80212;DHT22;70434;37.956;23.722;2023-06-14T12:03:02;30.10;36.30
80212;DHT22;70434;37.956;23.722;2023-06-14T12:05:29;29.90;36.40
80212;DHT22;70434;37.956;23.722;2023-06-14T12:08:02;29.90;36.80
80212;DHT22;70434;37.956;23.722;2023-06-14T12:10:29;29.90;36.80
80212;DHT22;70434;37.956;23.722;2023-06-14T12:12:59;30.00;36.50
80212;DHT22;70434;37.956;23.722;2023-06-14T12:15:27;30.00;36.50
80212;DHT22;70434;37.956;23.722;2023-06-14T12:17:54;30.10;36.50
80212;DHT22;70434;37.956;23.722;2023-06-14T12:20:20;30.10;35.90
80212;DHT22;70434;37.956;23.722;2023-06-14T12:22:57;30.10;36.30
80212;DHT22;70434;37.956;23.722;2023-06-14T12:27:56;30.00;36.50
80212;DHT22;70434;37.956;23.722;2023-06-14T12:30:22;30.10;36.10
80212;DHT22;70434;37.956;23.722;2023-06-14T12:32:47;30.20;35.80
80212;DHT22;70434;37.956;23.722;2023-06-14T12:35:14;30.30;36.00
80212;DHT22;70434;37.956;23.722;2023-06-14T12:37:40;30.30;36.00
80212;DHT22;70434;37.956;23.722;2023-06-14T12:40:06;30.40;36.40
80212;DHT22;70434;37.956;23.722;2023-06-14T12:42:33;30.50;35.70
80212;DHT22;70434;37.956;23.722;2023-06-14T12:44:59;30.40;35.50
80212;DHT22;70434;37.956;23.722;2023-06-14T12:47:25;30.40;35.50
80212;DHT22;70434;37.956;23.722;2023-06-14T12:49:51;30.50;35.10
80212;DHT22;70434;37.956;23.722;2023-06-14T12:52:17;30.50;35.30
80212;DHT22;70434;37.956;23.722;2023-06-14T12:54:42;30.50;35.20
80212;DHT22;70434;37.956;23.722;2023-06-14T12:57:08;30.60;35.20
80212;DHT22;70434;37.956;23.722;2023-06-14T12:59:35;30.80;34.70
80212;DHT22;70434;37.956;23.722;2023-06-14T13:02:15;30.90;34.60
80212;DHT22;70434;37.956;23.722;2023-06-14T13:04:41;31.20;34.50
80212;DHT22;70434;37.956;23.722;2023-06-14T13:07:06;31.40;34.10
80212;DHT22;70434;37.956;23.722;2023-06-14T13:09:32;31.50;33.60
80212;DHT22;70434;37.956;23.722;2023-06-14T13:11:58;31.50;33.30
80212;DHT22;70434;37.956;23.722;2023-06-14T13:14:24;31.50;33.60
80212;DHT22;70434;37.956;23.722;2023-06-14T13:16:50;31.60;33.50
80212;DHT22;70434;37.956;23.722;2023-06-14T13:19:15;31.60;33.20
80212;DHT22;70434;37.956;23.722;2023-06-14T13:21:41;31.60;33.30
80212;DHT22;70434;37.956;23.722;2023-06-14T13:24:07;31.70;32.90
80212;DHT22;70434;37.956;23.722;2023-06-14T13:26:33;31.70;32.90
80212;DHT22;70434;37.956;23.722;2023-06-14T13:28:59;31.70;33.00
80212;DHT22;70434;37.956;23.722;2023-06-14T13:31:25;31.80;32.90
80212;DHT22;70434;37.956;23.722;2023-06-14T13:33:51;31.90;33.30
80212;DHT22;70434;37.956;23.722;2023-06-14T13:36:16;31.90;33.40
80212;DHT22;70434;37.956;23.722;2023-06-14T13:38:42;32.00;33.80
80212;DHT22;70434;37.956;23.722;2023-06-14T13:41:08;32.10;33.50
80212;DHT22;70434;37.956;23.722;2023-06-14T13:43:33;32.20;33.30
80212;DHT22;70434;37.956;23.722;2023-06-14T13:45:59;32.20;33.70
80212;DHT22;70434;37.956;23.722;2023-06-14T13:48:25;32.10;34.90
80212;DHT22;70434;37.956;23.722;2023-06-14T13:50:51;32.00;35.40
80212;DHT22;70434;37.956;23.722;2023-06-14T13:53:17;31.90;36.00
80212;DHT22;70434;37.956;23.722;2023-06-14T13:55:43;31.80;35.50
80212;DHT22;70434;37.956;23.722;2023-06-14T13:58:08;31.90;35.70
80212;DHT22;70434;37.956;23.722;2023-06-14T14:00:34;31.80;35.70
80212;DHT22;70434;37.956;23.722;2023-06-14T14:03:03;31.80;35.10
80212;DHT22;70434;37.956;23.722;2023-06-14T14:05:29;31.90;35.20
80212;DHT22;70434;37.956;23.722;2023-06-14T14:07:56;32.00;34.90
80212;DHT22;70434;37.956;23.722;2023-06-14T14:10:24;32.10;34.40
80212;DHT22;70434;37.956;23.722;2023-06-14T14:12:50;32.20;33.30
80212;DHT22;70434;37.956;23.722;2023-06-14T14:15:17;32.20;33.30
80212;DHT22;70434;37.956;23.722;2023-06-14T14:17:42;32.40;33.70
80212;DHT22;70434;37.956;23.722;2023-06-14T14:20:09;32.40;32.80
80212;DHT22;70434;37.956;23.722;2023-06-14T14:22:42;32.30;33.50
80212;DHT22;70434;37.956;23.722;2023-06-14T14:25:12;32.30;33.90
80212;DHT22;70434;37.956;23.722;2023-06-14T14:27:41;32.20;34.10
80212;DHT22;70434;37.956;23.722;2023-06-14T14:30:11;32.20;34.00
80212;DHT22;70434;37.956;23.722;2023-06-14T14:32:42;32.00;34.20
80212;DHT22;70434;37.956;23.722;2023-06-14T14:35:09;31.90;33.80
80212;DHT22;70434;37.956;23.722;2023-06-14T14:37:37;31.80;34.40
80212;DHT22;70434;37.956;23.722;2023-06-14T14:40:03;31.70;34.70
80212;DHT22;70434;37.956;23.722;2023-06-14T14:42:29;31.70;34.10
80212;DHT22;70434;37.956;23.722;2023-06-14T14:44:56;31.70;34.20
80212;DHT22;70434;37.956;23.722;2023-06-14T14:47:22;31.60;35.40
80212;DHT22;70434;37.956;23.722;2023-06-14T14:49:50;31.50;36.10
80212;DHT22;70434;37.956;23.722;2023-06-14T14:52:16;31.50;36.30
80212;DHT22;70434;37.956;23.722;2023-06-14T14:54:42;31.70;35.90
80212;DHT22;70434;37.956;23.722;2023-06-14T14:57:08;31.90;36.10
80212;DHT22;70434;37.956;23.722;2023-06-14T14:59:34;31.90;34.70
80212;DHT22;70434;37.956;23.722;2023-06-14T15:01:59;32.00;34.70
80212;DHT22;70434;37.956;23.722;2023-06-14T15:04:25;32.00;35.10
80212;DHT22;70434;37.956;23.722;2023-06-14T15:06:51;32.10;35.60
80212;DHT22;70434;37.956;23.722;2023-06-14T15:09:16;32.10;36.20
80212;DHT22;70434;37.956;23.722;2023-06-14T15:11:42;32.00;36.70
80212;DHT22;70434;37.956;23.722;2023-06-14T15:14:10;32.10;36.70
80212;DHT22;70434;37.956;23.722;2023-06-14T15:16:35;32.20;35.50
80212;DHT22;70434;37.956;23.722;2023-06-14T15:19:01;32.20;35.40
80212;DHT22;70434;37.956;23.722;2023-06-14T15:21:27;32.20;35.10
80212;DHT22;70434;37.956;23.722;2023-06-14T15:23:53;32.30;34.90
80212;DHT22;70434;37.956;23.722;2023-06-14T15:26:19;32.30;34.70
80212;DHT22;70434;37.956;23.722;2023-06-14T15:28:45;32.40;35.20
80212;DHT22;70434;37.956;23.722;2023-06-14T15:31:11;32.40;34.60
80212;DHT22;70434;37.956;23.722;2023-06-14T15:33:36;32.20;34.70
80212;DHT22;70434;37.956;23.722;2023-06-14T15:36:02;32.10;35.10
80212;DHT22;70434;37.956;23.722;2023-06-14T15:38:28;32.00;35.00
80212;DHT22;70434;37.956;23.722;2023-06-14T15:40:54;31.90;35.70
80212;DHT22;70434;37.956;23.722;2023-06-14T15:43:20;31.80;36.50
80212;DHT22;70434;37.956;23.722;2023-06-14T15:45:46;31.80;36.50